Patrick Muller

Recruteur - Sochaux
4 Déc 2028
Lundi
Processus

Personnalité

Adaptabilité (3) Ambition (10) Controverse (10) Loyauté (1) Pression (17) Professionnalisme (5) Sportivité (1) Tempérament (10)

Profil

Style d'entraînement Démocratique
Diplôme National B
Détermination 7
Gestion des joueurs 12
Motivation 8
Discipline 10
Satisfaction professionnelle
100%
Fatigue
0%
Rôle Recruteur
Salaire 12.5K p/s
Contrat 14.03.2030

Performance

Comportement Bon
Efficacité de l'entraînement
36%
Développement des joueurs
55%
Prévention des blessures
60%
Mise en place tactique
30%

Événements récents

A participé à une réunion de recrutement maintenant
A recommandé une cible de transfert maintenant
A participé à une réunion de recrutement 7j
A recommandé une cible de transfert 7j
A recommandé une cible de transfert 7j
A recommandé une cible de transfert 7j
A recommandé une cible de transfert 14j
A recommandé une cible de transfert 14j

Suivi en cours

105
Joueur Club Statut Capacité Confiance Observé Dernière observation Dernier vote
Justin Lacombe Valenciennes Négociation 107 / 111 69% 1 14.08.2028 -
Erin Airhiavbere Valenciennes Négociation 101 / 101 69% 1 24.07.2028 -
Josh Nichols Oldham Athletic Actif 128 / 122 40% 2 31.05.2028 -
Kamaldeen Atiemo Wa All Stars Actif 101 / 116 40% 1 31.05.2028 -
Martim Cunha Porto Actif 103 / 113 40% 2 28.05.2028 -
Andrija Bulatović Chamois Niortais Actif 132 / 136 40% 3 28.05.2028 -
Olivier Leroux Mouscron Actif 104 / 114 40% 2 25.05.2028 -
Riquelme Thompson-Jones Accrington Stanley Actif 116 / 120 40% 4 25.05.2028 -
Giovanni Leoni Lincoln City Actif 134 / 150 40% 5 24.05.2028 -
Issa Tounkara Etoiles du Mande Actif 79 / 96 40% 1 24.05.2028 -
Arsene Mekila Gazelle Garoua Actif 86 / 91 40% 1 24.05.2028 -
Dmytro Strilchuk Podillia Actif 96 / 84 40% 2 22.05.2028 -
Tyler Fletcher Rotherham United Actif 110 / 114 40% 1 22.05.2028 -
David Blanc Le Havre AC Actif 117 / 120 40% 1 21.05.2028 -
Simone Suppa Virtus Verona Actif 79 / 87 40% 1 21.05.2028 -
Jan Bürger Northampton Town Actif 114 / 131 40% 1 20.05.2028 -
Andrea Cogoni Cosenza Actif 115 / 110 40% 1 17.05.2028 -
Joel Ezra Enyimba Actif 83 / 94 40% 1 15.05.2028 -
Gael Moreno Morelia Actif 78 / 65 40% 1 13.05.2028 -
Abubakar Adams Aduana Stars Actif 77 / 90 40% 2 09.05.2028 -
Kiani Inge Groningen Actif 117 / 115 40% 2 07.05.2028 -
Kelian Le Pironnec Mirandés Actif 100 / 106 40% 2 06.05.2028 -
Amine Boukamir Charleroi Actif 104 / 114 40% 1 02.05.2028 -
Nko Ghangle Rattensi Victoria United Actif 83 / 82 40% 1 30.04.2028 -
Maël Monyebe Gazelle Garoua Actif 88 / 94 40% 2 27.04.2028 -
Honest Ahanor Atalanta Actif 134 / 134 40% 1 27.04.2028 -
Bernardo Lima Porto Actif 105 / 120 40% 2 25.04.2028 -
Thato Sibiya Orlando Pirates Actif 107 / 116 40% 1 24.04.2028 -
Augusto Bando Ascoli Actif 110 / 123 40% 2 23.04.2028 -
Christos Mouzakitis Hull City Actif 129 / 145 40% 1 22.04.2028 -
Trey Nyoni Rotherham United Actif 138 / 150 40% 3 21.04.2028 -
Daniel Banjaqui Benfica Actif 129 / 134 40% 2 21.04.2028 -
Maxim Radchenko Rostov Actif 98 / 107 40% 1 21.04.2028 -
Jorthy Mokio ADO Den Haag Actif 131 / 135 40% 1 20.04.2028 -
Tobiáš Pališčák Zlin Actif 98 / 107 40% 1 20.04.2028 -
Bence Szakos Aris Actif 87 / 93 40% 1 19.04.2028 -
Kwesi Sorotu Badori Berekum Chelsea Actif 104 / 114 40% 2 16.04.2028 -
Federico Matarán Giana Erminio Actif 108 / 116 40% 1 12.04.2028 -
Gustavo Albarracín Alavés Actif 108 / 117 40% 1 08.04.2028 -
Andrey Ivlev Nizhniy Novgorod Actif 119 / 124 40% 2 07.04.2028 -
Makar Vysochenko Spartak Moscow Actif 96 / 102 40% 1 07.04.2028 -
Olivier Mambwa Young Boys Actif 116 / 112 40% 1 04.04.2028 -
Thijs Kraaijeveld USM Alger Actif 126 / 134 40% 2 29.03.2028 -
Josh Acheampong Everton Actif 142 / 152 40% 1 29.03.2028 -
Nicolas Sport Recife Actif 93 / 116 40% 1 22.03.2028 -
Konta Ismaily Actif 103 / 100 40% 1 20.03.2028 -
Joseph Namatane FC Metz Actif 99 / 97 40% 1 20.03.2028 -
Ayden Heaven Portsmouth Actif 139 / 157 40% 1 07.03.2028 -
Quentin Beunardeau Red Star Actif 123 / 113 62% 1 19.07.2027 Approuver
Ahmad Ngouyamsa US Creteil Actif 117 / 110 62% 1 01.06.2027 Approuver
Mohamed Belloumi Hull City Actif 137 / 130 40% 1 30.05.2027 -
Welington Southampton Actif 130 / 127 40% 1 29.05.2027 -
Bosun Lawal Stoke City Actif 118 / 130 40% 1 27.05.2027 -
Cian Ashford Cardiff City Actif 122 / 122 40% 1 24.05.2027 -
Tyrese Campbell Sheffield United Actif 121 / 131 40% 1 24.05.2027 -
Ilias Sebaoui Sint-Truiden Actif 124 / 123 40% 3 20.05.2027 -
Kristoffer Lund Birmingham Actif 122 / 129 40% 1 14.05.2027 -
Jeppe Erenbjerg Racing Genk Actif 118 / 120 40% 1 13.05.2027 -
Scott Twine Bristol City Actif 123 / 127 40% 1 11.05.2027 -
Rocco Vata Watford Actif 115 / 117 40% 1 11.05.2027 -
Alfie Doughty Millwall Actif 131 / 130 40% 1 08.05.2027 -
Finn Azaz Southampton Actif 123 / 128 40% 1 05.05.2027 -
Jack Currie Oxford United Actif 116 / 115 40% 2 04.05.2027 -
Mohamed-Ali Cho Hull City Actif 141 / 143 40% 1 04.05.2027 -
Jason Knight Bristol City Actif 140 / 132 40% 1 03.05.2027 -
Léandre Kuavita Waasland-Beveren Actif 108 / 119 40% 1 30.04.2027 -
Martin Baturina Como Actif 135 / 132 40% 1 30.04.2027 -
Thibaud Verlinden OH Leuven Actif 119 / 116 40% 2 29.04.2027 -
Jack Rudoni Coventry City Actif 132 / 129 40% 1 28.04.2027 -
Sylvester Jasper Standard Liege Actif 122 / 114 40% 1 28.04.2027 -
Abdelkahar Kadri KAA Gent Actif 123 / 123 40% 3 26.04.2027 -
Isaiah Jones Luton Town Actif 123 / 127 40% 5 14.04.2027 -
Brooke Norton-Cuffy Hull City Actif 130 / 131 40% 1 14.04.2027 -
Juan Bezerra Zamalek Actif 125 / 125 40% 1 13.04.2027 -
Xavier Amaechi Plymouth Argyle Actif 101 / 104 40% 1 13.04.2027 -
Milan van Ewijk Coventry City Actif 138 / 129 40% 1 10.04.2027 -
Antoine Colassin Charleroi Actif 113 / 114 40% 1 08.04.2027 -
Luca Koleosho Paris FC Actif 131 / 135 40% 1 05.04.2027 -
Hicham Mahou Angers SCO Actif 110 / 110 40% 1 05.04.2027 -
Ayman Kari Westerlo Actif 125 / 116 40% 2 29.03.2027 -
Taiga Hata Sint-Truiden Actif 132 / 118 40% 2 28.03.2027 -
Florentino Luís Ipswich Town Actif 150 / 141 40% 1 28.03.2027 -
Joe Gelhardt Hull City Actif 135 / 136 40% 1 24.03.2027 -
Tommy St. Jago KV Mechelen Actif 112 / 120 40% 1 24.03.2027 -
Chris Lokesa Waasland-Beveren Actif 122 / 123 40% 1 22.03.2027 -
Oswin Appollis Orlando Pirates Actif 132 / 111 40% 1 20.03.2027 -
Mardochée Nzita Charleroi Actif 107 / 122 40% 2 18.03.2027 -
Ar'jany Martha Rotherham United Actif 115 / 109 40% 1 18.03.2027 -
Théodore Lefèvre Tours Actif 138 / 123 40% 1 17.03.2027 -
Daniel Kyerewaa Reading Actif 121 / 107 40% 1 16.03.2027 -
Thomas Claes Zulte Waregem Actif 108 / 125 40% 2 14.03.2027 -
Bongani Zungu Ajax Cape Town Actif 142 / 137 40% 1 14.03.2027 -
Malick Mbaye Zulte Waregem Actif 116 / 118 40% 1 13.03.2027 -
Samuel Edozie Southampton Actif 130 / 134 40% 1 12.03.2027 -
Timothy Witsel FC Metz Actif 126 / 129 40% 1 07.03.2027 -
Nacim Dendani Monaco Actif 90 / 95 62% 1 01.01.2027 Approuver
Max Bird Birmingham Actif 141 / 131 40% 1 14.12.2026 -
Thibaut Vargas Stade Lavallois Actif 107 / 107 40% 1 11.12.2026 -
Wilguens Paugain Zulte Waregem Actif 108 / 110 40% 1 11.12.2026 -
Manu Morlanes Mallorca Actif 128 / 130 40% 1 10.12.2026 -
José Marsà KV Mechelen Actif 128 / 126 40% 1 10.12.2026 -
Botond Balogh Westerlo Actif 125 / 126 40% 1 08.12.2026 -
Teden Mengi Luton Town Actif 114 / 131 40% 1 21.11.2026 -
Enrique Lofolomo Zulte Waregem Actif 111 / 114 40% 1 11.11.2026 -
Ousmane Diomande Nottingham Forest Actif 148 / 156 40% 1 07.10.2026 -